Dalaman, Turkey

10:31 AM EET on February 27, 2015 (GMT +0200)
Dalaman | Change Station
CLOSE
Current Station
Airport
Location: Dalaman,
Elevation: 7 ft
Nearby Weather Stations

Elev 7 ft 36.71 °N, 28.79 °E | Updated 11 minutes ago

Partly Cloudy
Partly Cloudy
61 °F
Feels Like 61 °F
N
6
Wind Variable Wind from NNE

Today
High -- | Low -- °F
--% Chance of Precip.
Yesterday
High -- | Low -- °F
Precip. -- in
6:38 AM 5:56 PM
Waxing Gibbous, 66% visible
Pressure 29.89 in
Visibility 6.2 miles
Clouds Few 3000 ft
Dew Point 46 °F
Humidity 59%
Rainfall 0.00 in
Snow Depth Not available.
UV 5 out of 12
Pollen Not available.
Air Quality Not available.
Flu Activity Not available.
METAR LTBS 270820Z 03005KT 9999 FEW030 16/08 Q1012 NOSIG

More Conditions Fewer Conditions

Pressure 29.89 in
Visibility 6.2 miles
Clouds Few 3000 ft
Dew Point 46 °F
Humidity 59%
Rainfall 0.00 in
Snow Depth Not available.
UV 5 out of 12
Pollen Not available.
Air Quality Not available.
Flu Activity Not available.
METAR LTBS 270820Z 03005KT 9999 FEW030 16/08 Q1012 NOSIG

More Conditions Fewer Conditions

10-Day Weather Forecast

Almanac

Astronomy

Feb. 27, 2015 Rise Set
Actual Time
Civil Twilight
Nautical Twilight
Astronomical Twilight
Moon
Length of Visible Light
Length of Day
Tomorrow will be .
, % of the Moon is Illuminated

Today's Extremes

Country Highs Country Lows

Community

WunderPhotos

Upload Photos

1,800,649 photos uploaded!

WunderBlogs® & News

Nearby

Air Quality

  Air Quality AQ Index Pollutant
Not available.

Snow Depth

Station Depth Elevation

Earthquake Activity

City Distance Mag. Time & Date
Minimum magnitude displayed is 2.5.

Coastal Water Temperatures

Place Temperature

Nearby Weather Stations